Time;durP1;ratioP1;P1;durP2;ratioP2;P2;SDS_P1;SDS_P2;PMS_P1;PMS_P2;Temp;Humidity;BMP_temperature;BMP_pressure;BME280_temperature;BME280_humidity;BME280_pressure;Samples;Min_cycle;Max_cycle;Signal;HPM_P1;HPM_P2
2023/09/18 00:02:20;;;;;;;2.92;1.48;;;19.00;99.90;;;;;;5040289;28;20032;-65
2023/09/18 00:04:46;;;;;;;2.20;1.42;;;19.00;99.90;;;;;;5038501;28;20022;-66
2023/09/18 00:07:11;;;;;;;2.92;1.65;;;18.90;99.90;;;;;;5040013;28;20097;-66
2023/09/18 00:09:37;;;;;;;3.58;1.55;;;18.90;99.90;;;;;;5038501;28;20022;-65
2023/09/18 00:12:03;;;;;;;4.90;1.90;;;18.80;99.90;;;;;;5038655;28;20483;-65
2023/09/18 00:14:29;;;;;;;2.35;1.55;;;18.70;99.90;;;;;;5039872;28;20108;-65
2023/09/18 00:16:57;;;;;;;4.13;1.70;;;18.70;99.90;;;;;;5039824;28;20072;-66
2023/09/18 00:19:23;;;;;;;3.33;1.60;;;18.70;99.90;;;;;;5027073;28;20051;-66
2023/09/18 00:21:49;;;;;;;3.15;1.60;;;18.70;99.90;;;;;;5039752;28;20026;-66
2023/09/18 00:24:14;;;;;;;3.42;1.80;;;18.60;99.90;;;;;;5039791;28;20064;-66
2023/09/18 00:26:40;;;;;;;2.53;1.42;;;18.60;99.90;;;;;;5039674;28;20021;-66
2023/09/18 00:29:06;;;;;;;2.03;1.52;;;18.60;99.90;;;;;;5039728;28;20049;-66
2023/09/18 00:31:31;;;;;;;2.53;1.55;;;18.50;99.90;;;;;;5039785;28;20032;-66
2023/09/18 00:33:57;;;;;;;3.90;1.80;;;18.50;99.90;;;;;;5039190;28;20036;-66
2023/09/18 00:36:22;;;;;;;2.83;1.60;;;18.50;99.90;;;;;;5039683;28;20061;-66
2023/09/18 00:38:48;;;;;;;3.83;1.73;;;18.50;99.90;;;;;;5039615;28;20033;-66
2023/09/18 00:41:14;;;;;;;3.25;1.63;;;18.50;99.90;;;;;;5037921;28;20445;-65
2023/09/18 00:43:39;;;;;;;3.50;1.77;;;18.40;99.90;;;;;;5039456;28;20030;-67
2023/09/18 00:46:05;;;;;;;3.83;1.48;;;18.40;99.90;;;;;;5039415;28;20025;-65
2023/09/18 00:48:31;;;;;;;6.88;1.90;;;18.40;99.90;;;;;;5039321;28;20431;-65
2023/09/18 00:50:57;;;;;;;4.68;1.95;;;18.40;99.90;;;;;;5039150;28;20025;-65
2023/09/18 00:53:25;;;;;;;3.00;1.45;;;18.30;99.90;;;;;;5039281;28;20417;-65
2023/09/18 00:55:56;;;;;;;2.80;1.60;;;18.30;99.90;;;;;;5044811;28;20159;-66
2023/09/18 00:58:22;;;;;;;1.95;1.50;;;18.30;99.90;;;;;;5038925;28;20072;-65
2023/09/18 01:00:51;;;;;;;3.85;1.70;;;18.20;99.90;;;;;;5039040;28;20079;-66
2023/09/18 01:03:18;;;;;;;4.28;1.80;;;18.20;99.90;;;;;;5039190;28;20026;-66
2023/09/18 01:05:44;;;;;;;3.63;1.67;;;18.20;99.90;;;;;;5038895;28;20044;-66
2023/09/18 01:08:10;;;;;;;2.45;1.80;;;18.20;99.90;;;;;;5038859;28;20026;-66
2023/09/18 01:11:04;;;;;;;3.00;1.52;;;18.20;99.90;;;;;;5037773;28;20014;-66
2023/09/18 01:13:44;;;;;;;3.42;1.70;;;18.20;99.90;;;;;;5036715;28;20041;-66
2023/09/18 01:16:19;;;;;;;3.08;1.65;;;18.20;99.90;;;;;;5038705;28;20033;-66
2023/09/18 01:18:51;;;;;;;3.08;1.67;;;18.20;99.90;;;;;;5027197;28;20022;-66
2023/09/18 01:21:20;;;;;;;3.85;1.83;;;18.20;99.90;;;;;;5036839;28;20026;-66
2023/09/18 01:23:45;;;;;;;4.85;1.70;;;18.30;99.90;;;;;;5038637;28;20021;-66
2023/09/18 01:26:11;;;;;;;4.43;1.85;;;18.40;99.90;;;;;;5038380;28;20509;-66
2023/09/18 01:28:36;;;;;;;5.45;1.77;;;18.50;99.90;;;;;;5038588;28;20030;-66
2023/09/18 01:31:02;;;;;;;4.28;2.05;;;18.60;99.90;;;;;;5038397;28;20486;-65
2023/09/18 01:33:29;;;;;;;5.32;2.15;;;18.60;99.90;;;;;;5038593;28;20029;-66
2023/09/18 01:35:56;;;;;;;5.32;2.10;;;18.70;99.90;;;;;;5038092;28;20056;-66
2023/09/18 01:38:23;;;;;;;4.57;2.40;;;18.80;99.90;;;;;;5038535;28;20025;-66
2023/09/18 01:40:50;;;;;;;3.85;2.10;;;18.80;99.90;;;;;;5036650;28;20445;-65
2023/09/18 01:43:16;;;;;;;5.80;2.45;;;18.90;99.90;;;;;;5038559;28;20056;-65
2023/09/18 01:45:43;;;;;;;6.25;2.92;;;18.90;99.90;;;;;;5038150;28;20025;-65
2023/09/18 01:48:09;;;;;;;4.28;2.60;;;19.00;99.90;;;;;;5038323;28;20104;-66
2023/09/18 01:50:36;;;;;;;5.00;2.45;;;19.00;99.90;;;;;;5037732;28;20065;-66
2023/09/18 01:53:02;;;;;;;5.82;2.38;;;19.00;99.90;;;;;;5038249;28;20124;-65
2023/09/18 01:55:29;;;;;;;5.25;2.90;;;19.00;99.90;;;;;;5044449;28;20061;-66
2023/09/18 01:57:55;;;;;;;4.75;2.90;;;19.00;99.90;;;;;;5037811;28;20040;-65
2023/09/18 02:00:21;;;;;;;4.18;2.58;;;19.00;99.90;;;;;;5037871;28;20034;-66
2023/09/18 02:02:47;;;;;;;6.65;2.75;;;19.00;99.90;;;;;;5037947;28;20028;-65
2023/09/18 02:05:12;;;;;;;4.43;2.70;;;19.00;99.90;;;;;;5037681;28;20029;-65
2023/09/18 02:07:38;;;;;;;3.90;2.60;;;19.00;99.90;;;;;;5037692;28;20025;-65
2023/09/18 02:10:04;;;;;;;4.93;2.63;;;19.00;99.90;;;;;;5036360;28;20510;-65
2023/09/18 02:12:30;;;;;;;4.53;2.85;;;19.10;99.90;;;;;;5036452;28;20089;-66
2023/09/18 02:14:58;;;;;;;3.45;2.17;;;19.10;99.90;;;;;;5037797;28;20080;-66
2023/09/18 02:17:24;;;;;;;4.80;2.70;;;19.20;99.90;;;;;;5037707;28;20100;-66
2023/09/18 02:19:49;;;;;;;3.65;2.63;;;19.20;99.90;;;;;;5024946;28;20022;-66
2023/09/18 02:22:15;;;;;;;4.93;2.58;;;19.20;99.90;;;;;;5037254;28;20037;-66
2023/09/18 02:24:41;;;;;;;4.55;2.58;;;19.20;99.90;;;;;;5037431;28;20417;-66
2023/09/18 02:27:07;;;;;;;5.03;2.80;;;19.20;99.90;;;;;;5037667;28;20497;-66
2023/09/18 02:29:32;;;;;;;5.22;2.30;;;19.20;99.90;;;;;;5037695;28;20425;-66
2023/09/18 02:31:58;;;;;;;5.10;2.65;;;19.20;99.90;;;;;;5037730;28;20055;-65
2023/09/18 02:34:23;;;;;;;3.95;2.53;;;19.20;99.90;;;;;;5037190;28;20036;-65
2023/09/18 02:36:49;;;;;;;4.95;2.70;;;19.20;99.90;;;;;;5037463;28;20026;-65
2023/09/18 02:39:15;;;;;;;5.38;2.80;;;19.20;99.90;;;;;;5035516;28;20033;-65
2023/09/18 02:41:40;;;;;;;5.35;2.80;;;19.20;99.90;;;;;;5021634;28;20029;-65
2023/09/18 02:44:06;;;;;;;4.75;2.58;;;19.20;99.90;;;;;;5036844;28;20490;-65
2023/09/18 02:46:31;;;;;;;3.58;2.83;;;19.20;99.90;;;;;;5037329;28;20029;-66
2023/09/18 02:48:57;;;;;;;4.65;2.90;;;19.20;99.90;;;;;;5035565;28;20541;-66
2023/09/18 02:51:23;;;;;;;4.40;2.95;;;19.20;99.90;;;;;;5037446;28;20030;-66
2023/09/18 02:53:49;;;;;;;6.07;2.60;;;19.20;99.90;;;;;;5037011;28;20088;-66
2023/09/18 02:56:14;;;;;;;3.53;2.92;;;19.20;99.90;;;;;;5043399;28;20033;-67
2023/09/18 02:58:40;;;;;;;5.80;3.20;;;19.20;99.90;;;;;;5037239;28;20389;-67
2023/09/18 03:01:07;;;;;;;4.32;2.88;;;19.20;99.90;;;;;;5037038;28;20084;-66
2023/09/18 03:03:33;;;;;;;4.93;2.85;;;19.30;99.90;;;;;;5037055;28;20432;-66
2023/09/18 03:06:03;;;;;;;5.57;3.00;;;19.30;99.90;;;;;;5036831;28;20021;-66
2023/09/18 03:08:29;;;;;;;4.50;3.10;;;19.20;99.90;;;;;;5036991;28;20018;-67
2023/09/18 03:10:55;;;;;;;4.50;2.60;;;19.30;99.90;;;;;;5037087;28;20465;-66
2023/09/18 03:13:21;;;;;;;3.95;2.63;;;19.20;99.90;;;;;;5037040;28;20064;-65
2023/09/18 03:15:47;;;;;;;3.92;2.50;;;19.10;99.90;;;;;;5037207;28;20516;-66
2023/09/18 03:18:13;;;;;;;4.57;2.67;;;19.00;99.90;;;;;;5031134;28;20026;-65
2023/09/18 03:20:39;;;;;;;4.47;2.97;;;18.90;99.90;;;;;;5029847;28;20025;-65
2023/09/18 03:23:04;;;;;;;4.88;2.65;;;18.90;99.90;;;;;;5036956;28;20025;-65
2023/09/18 03:25:30;;;;;;;5.43;2.70;;;18.90;99.90;;;;;;5036643;28;20033;-65
2023/09/18 03:27:57;;;;;;;3.10;2.40;;;18.80;99.90;;;;;;5036890;28;20084;-65
2023/09/18 03:30:24;;;;;;;4.30;2.50;;;18.80;99.90;;;;;;5036896;28;20108;-65
2023/09/18 03:32:50;;;;;;;3.50;2.20;;;18.80;99.90;;;;;;5036638;28;20025;-65
2023/09/18 03:35:19;;;;;;;3.75;2.50;;;18.80;99.90;;;;;;5039332;28;20112;-66
2023/09/18 03:37:50;;;;;;;3.33;2.53;;;18.70;99.90;;;;;;5040830;28;20040;-66
2023/09/18 03:40:17;;;;;;;2.95;2.30;;;18.70;99.90;;;;;;5040490;28;20025;-66
2023/09/18 03:42:43;;;;;;;4.05;2.47;;;18.70;99.90;;;;;;5040455;28;20026;-66
2023/09/18 03:45:09;;;;;;;2.63;2.28;;;18.80;99.90;;;;;;5040704;28;20051;-65
2023/09/18 03:47:36;;;;;;;3.03;2.60;;;18.70;99.90;;;;;;5040762;28;20533;-66
2023/09/18 03:50:03;;;;;;;4.40;2.53;;;18.80;99.90;;;;;;5038811;28;20037;-65
2023/09/18 03:52:28;;;;;;;3.47;2.20;;;18.80;99.90;;;;;;5040448;28;20417;-66
2023/09/18 03:54:54;;;;;;;2.72;2.25;;;18.80;99.90;;;;;;5046409;28;20104;-66
2023/09/18 03:57:19;;;;;;;3.25;2.40;;;18.90;99.90;;;;;;5040173;28;20048;-65
2023/09/18 03:59:45;;;;;;;2.63;2.00;;;18.90;99.90;;;;;;5040279;28;20117;-66
2023/09/18 04:02:11;;;;;;;3.03;2.42;;;18.90;99.90;;;;;;5038932;28;20021;-65
2023/09/18 04:04:36;;;;;;;3.25;2.40;;;18.90;99.90;;;;;;5039798;28;20478;-65
2023/09/18 04:07:06;;;;;;;3.08;2.50;;;18.90;99.90;;;;;;5040180;28;20109;-65
2023/09/18 04:09:32;;;;;;;4.22;2.53;;;18.90;99.90;;;;;;5040187;28;20025;-65
2023/09/18 04:11:58;;;;;;;3.97;2.42;;;19.00;99.90;;;;;;5040003;28;20029;-65
2023/09/18 04:14:24;;;;;;;2.53;2.17;;;19.00;99.90;;;;;;5039855;28;20068;-65
2023/09/18 04:16:50;;;;;;;3.85;2.40;;;19.00;99.90;;;;;;5040054;28;20018;-65
2023/09/18 04:19:15;;;;;;;2.95;2.20;;;18.90;99.90;;;;;;5026586;28;20399;-65
2023/09/18 04:21:41;;;;;;;5.82;2.20;;;18.90;99.90;;;;;;5039839;28;20026;-65
2023/09/18 04:24:07;;;;;;;3.50;2.40;;;18.80;99.90;;;;;;5039719;28;20029;-65
2023/09/18 04:26:33;;;;;;;2.88;2.30;;;18.80;99.90;;;;;;5040019;28;20446;-65
2023/09/18 04:29:00;;;;;;;3.03;2.63;;;18.70;99.90;;;;;;5039831;28;20071;-65
2023/09/18 04:31:27;;;;;;;3.63;2.38;;;18.60;99.90;;;;;;5039936;28;20084;-66
2023/09/18 04:33:53;;;;;;;3.42;2.40;;;18.60;99.90;;;;;;5038052;28;20029;-65
2023/09/18 04:36:19;;;;;;;4.05;2.67;;;18.60;99.90;;;;;;5038378;28;20036;-65
2023/09/18 04:38:45;;;;;;;6.03;2.70;;;18.60;99.90;;;;;;5039523;28;20037;-65
2023/09/18 04:41:11;;;;;;;3.70;2.40;;;18.60;99.90;;;;;;5039266;28;20032;-65
2023/09/18 04:43:38;;;;;;;4.65;2.67;;;18.70;99.90;;;;;;5039198;28;20443;-66
2023/09/18 04:46:04;;;;;;;3.15;2.25;;;18.70;99.90;;;;;;5037941;28;20033;-64
2023/09/18 04:48:31;;;;;;;3.08;2.30;;;18.80;99.90;;;;;;5036137;28;20018;-65
2023/09/18 04:50:57;;;;;;;3.70;2.22;;;18.80;99.90;;;;;;5031408;28;20087;-65
2023/09/18 04:53:23;;;;;;;4.78;2.55;;;18.70;99.90;;;;;;5027249;28;20057;-65
2023/09/18 04:55:50;;;;;;;3.20;2.45;;;18.70;99.90;;;;;;5037977;28;20026;-65
2023/09/18 04:58:16;;;;;;;3.97;2.33;;;18.80;99.90;;;;;;5026764;28;20096;-66
2023/09/18 05:00:42;;;;;;;3.47;2.53;;;18.80;99.90;;;;;;5026642;28;20368;-66
2023/09/18 05:03:09;;;;;;;2.83;2.53;;;18.80;99.90;;;;;;5028978;28;20029;-66
2023/09/18 05:05:35;;;;;;;3.63;2.80;;;18.70;99.90;;;;;;5035342;28;20490;-66
2023/09/18 05:08:07;;;;;;;3.47;2.63;;;18.70;99.90;;;;;;5034336;28;20018;-66
2023/09/18 05:10:35;;;;;;;4.10;2.33;;;18.60;99.90;;;;;;5034561;28;20500;-66
2023/09/18 05:13:01;;;;;;;2.92;2.38;;;18.60;99.90;;;;;;5032851;28;20077;-66
2023/09/18 05:15:29;;;;;;;2.65;2.15;;;18.50;99.90;;;;;;5022299;28;20426;-65
2023/09/18 05:17:57;;;;;;;3.90;2.22;;;18.60;99.90;;;;;;5030882;28;20101;-65
2023/09/18 05:20:28;;;;;;;3.10;2.42;;;18.50;99.90;;;;;;5028705;28;20029;-66
2023/09/18 05:22:55;;;;;;;2.80;1.92;;;18.50;99.90;;;;;;5034929;28;20029;-66
2023/09/18 05:25:21;;;;;;;4.70;2.70;;;18.50;99.90;;;;;;5027056;28;20457;-66
2023/09/18 05:27:49;;;;;;;3.45;2.47;;;18.40;99.90;;;;;;5023851;28;20005;-66
2023/09/18 05:30:17;;;;;;;2.47;2.25;;;18.40;99.90;;;;;;5024079;28;20100;-66
2023/09/18 05:32:45;;;;;;;3.40;2.35;;;18.40;99.90;;;;;;5056183;28;20036;-66
2023/09/18 05:35:12;;;;;;;3.95;2.50;;;18.40;99.90;;;;;;5038025;28;20493;-66
2023/09/18 05:37:38;;;;;;;4.15;2.58;;;18.40;99.90;;;;;;5037957;28;20084;-66
2023/09/18 05:40:07;;;;;;;3.47;2.58;;;18.40;99.90;;;;;;5034086;28;20029;-65
2023/09/18 05:42:33;;;;;;;5.03;3.00;;;18.40;99.90;;;;;;5037117;28;20033;-66
2023/09/18 05:44:59;;;;;;;2.92;2.58;;;18.40;99.90;;;;;;5025772;28;20068;-65
2023/09/18 05:47:24;;;;;;;4.18;2.63;;;18.40;99.90;;;;;;5030129;28;20029;-66
2023/09/18 05:49:50;;;;;;;3.25;2.70;;;18.40;99.90;;;;;;5028008;28;20068;-65
2023/09/18 05:52:15;;;;;;;2.55;2.35;;;18.40;99.90;;;;;;5033407;28;20029;-65
2023/09/18 05:54:41;;;;;;;5.38;2.53;;;18.40;99.90;;;;;;5033413;28;20025;-64
2023/09/18 05:57:07;;;;;;;4.38;2.88;;;18.40;99.90;;;;;;5031139;28;20049;-64
2023/09/18 05:59:32;;;;;;;4.38;2.75;;;18.40;99.90;;;;;;5025067;28;20500;-65
2023/09/18 06:01:58;;;;;;;2.85;2.15;;;18.40;99.90;;;;;;5028629;28;20026;-65
2023/09/18 06:04:24;;;;;;;4.63;2.80;;;18.40;99.90;;;;;;5019442;28;20395;-67
2023/09/18 06:06:51;;;;;;;2.47;2.28;;;18.50;99.90;;;;;;5033991;28;20024;-67
2023/09/18 06:09:16;;;;;;;3.25;2.78;;;18.50;99.90;;;;;;5020510;28;20108;-67
2023/09/18 06:11:42;;;;;;;3.35;2.45;;;18.50;99.90;;;;;;5024285;28;20030;-67
2023/09/18 06:14:08;;;;;;;5.53;2.85;;;18.50;99.90;;;;;;5031555;28;20021;-67
2023/09/18 06:16:33;;;;;;;3.05;2.30;;;18.50;99.90;;;;;;5031823;28;20049;-67
2023/09/18 06:19:00;;;;;;;3.42;2.60;;;18.60;99.90;;;;;;5033584;28;20064;-66
2023/09/18 06:21:25;;;;;;;4.85;2.33;;;18.60;99.90;;;;;;5033584;28;20026;-66
2023/09/18 06:23:51;;;;;;;3.70;2.63;;;18.60;99.90;;;;;;5033192;28;20036;-65
2023/09/18 06:26:18;;;;;;;4.97;2.70;;;18.60;99.90;;;;;;5034431;28;20029;-66
2023/09/18 06:28:43;;;;;;;4.05;2.80;;;18.70;99.90;;;;;;5031250;28;20014;-66
2023/09/18 06:31:11;;;;;;;5.18;2.80;;;18.70;99.90;;;;;;5032846;28;20029;-66
2023/09/18 06:33:37;;;;;;;3.67;2.17;;;18.80;99.90;;;;;;5023629;28;20409;-66
2023/09/18 06:36:03;;;;;;;4.32;2.25;;;18.90;99.90;;;;;;5030858;28;20040;-66
2023/09/18 06:38:28;;;;;;;5.78;2.75;;;19.00;99.90;;;;;;5033549;28;20115;-66
2023/09/18 06:40:55;;;;;;;4.18;2.72;;;19.00;99.90;;;;;;5027707;28;20052;-66
2023/09/18 06:43:20;;;;;;;4.75;2.47;;;19.10;99.90;;;;;;5032981;28;20028;-66
2023/09/18 06:45:46;;;;;;;4.38;2.47;;;19.20;99.90;;;;;;5032602;28;20025;-66
2023/09/18 06:48:13;;;;;;;3.28;2.38;;;19.30;99.90;;;;;;5026375;28;20021;-67
2023/09/18 06:50:39;;;;;;;3.60;2.78;;;19.40;99.90;;;;;;5027797;28;20109;-66
2023/09/18 06:53:05;;;;;;;5.13;2.47;;;19.40;99.90;;;;;;5023553;28;20053;-66
2023/09/18 06:55:31;;;;;;;3.90;2.50;;;19.50;99.90;;;;;;5032629;28;20049;-66
2023/09/18 06:57:56;;;;;;;4.72;2.33;;;19.50;99.90;;;;;;5026646;28;20061;-64
2023/09/18 07:00:22;;;;;;;3.03;1.98;;;19.50;99.90;;;;;;5037010;28;20100;-63
2023/09/18 07:02:49;;;;;;;3.47;2.30;;;19.50;99.90;;;;;;5036876;28;20033;-66
2023/09/18 07:05:15;;;;;;;3.30;2.08;;;19.50;99.90;;;;;;5035997;28;20474;-65
2023/09/18 07:07:40;;;;;;;4.20;2.20;;;19.50;99.90;;;;;;5027943;28;20053;-65
2023/09/18 07:10:06;;;;;;;2.75;1.63;;;19.50;99.90;;;;;;5033615;28;20032;-65
2023/09/18 07:12:32;;;;;;;3.90;2.10;;;19.50;99.90;;;;;;5038196;28;20056;-65
2023/09/18 07:15:06;;;;;;;2.55;1.83;;;19.50;99.90;;;;;;5036641;28;20048;-65
2023/09/18 07:17:32;;;;;;;2.70;1.58;;;19.60;99.90;;;;;;5039128;28;20056;-65
2023/09/18 07:19:57;;;;;;;3.05;1.88;;;19.50;99.90;;;;;;5027652;28;20393;-65
2023/09/18 07:22:23;;;;;;;2.55;1.80;;;19.60;99.90;;;;;;5039013;28;20104;-63
2023/09/18 07:24:49;;;;;;;3.65;1.80;;;19.60;99.90;;;;;;5037569;28;20025;-65
2023/09/18 07:27:14;;;;;;;3.10;1.67;;;19.60;99.90;;;;;;5037435;28;20037;-64
2023/09/18 07:29:40;;;;;;;3.28;1.85;;;19.70;99.90;;;;;;5035205;28;20461;-65
2023/09/18 07:32:05;;;;;;;3.72;1.70;;;19.70;99.90;;;;;;5036808;28;20038;-64
2023/09/18 07:34:31;;;;;;;3.47;1.67;;;19.70;99.90;;;;;;5036117;28;20028;-64
2023/09/18 07:36:58;;;;;;;4.88;2.50;;;19.70;99.90;;;;;;5029614;28;20030;-64
2023/09/18 07:39:23;;;;;;;3.78;2.28;;;19.70;99.90;;;;;;5038680;28;20032;-65
2023/09/18 07:41:49;;;;;;;2.20;1.65;;;19.70;99.90;;;;;;5039433;28;20056;-65
2023/09/18 07:44:21;;;;;;;4.70;1.80;;;19.70;99.90;;;;;;5037697;28;20394;-64
2023/09/18 07:46:46;;;;;;;3.07;1.73;;;19.70;99.90;;;;;;5033309;28;20469;-64
2023/09/18 07:49:13;;;;;;;3.42;1.77;;;19.70;99.90;;;;;;5038659;28;20025;-64
2023/09/18 07:51:39;;;;;;;2.17;1.60;;;19.70;99.90;;;;;;5038083;28;20021;-65
2023/09/18 07:54:06;;;;;;;4.25;2.35;;;19.70;99.90;;;;;;5024525;28;20075;-64
2023/09/18 07:56:34;;;;;;;2.72;1.50;;;19.70;99.90;;;;;;5040447;28;20060;-63
2023/09/18 07:59:00;;;;;;;2.97;1.58;;;19.80;99.90;;;;;;5037831;28;20037;-64
2023/09/18 08:01:26;;;;;;;3.22;1.40;;;19.80;99.90;;;;;;5034962;28;20049;-64
2023/09/18 08:03:51;;;;;;;3.00;1.67;;;19.90;99.90;;;;;;5039272;28;20030;-64
2023/09/18 08:06:19;;;;;;;2.95;1.60;;;19.90;99.90;;;;;;5032053;28;20025;-64
2023/09/18 08:08:45;;;;;;;2.75;1.70;;;20.00;99.90;;;;;;5031403;28;20034;-64
2023/09/18 08:11:10;;;;;;;3.70;1.40;;;20.20;99.90;;;;;;5034301;28;20025;-64
2023/09/18 08:13:37;;;;;;;2.63;1.30;;;20.20;99.90;;;;;;5038511;28;20053;-64
2023/09/18 08:16:05;;;;;;;1.80;1.23;;;20.30;99.90;;;;;;5039337;28;20025;-64
2023/09/18 08:18:31;;;;;;;3.65;1.25;;;20.40;99.90;;;;;;5038620;28;20086;-64
2023/09/18 08:20:58;;;;;;;2.47;1.30;;;20.40;99.90;;;;;;5037706;28;20022;-64
2023/09/18 08:23:24;;;;;;;2.72;1.30;;;20.40;99.90;;;;;;5036156;28;20056;-64
2023/09/18 08:25:51;;;;;;;2.80;1.40;;;20.50;99.90;;;;;;5036037;28;20022;-64
2023/09/18 08:28:17;;;;;;;1.88;0.98;;;20.60;99.90;;;;;;5038509;28;20100;-64
2023/09/18 08:30:47;;;;;;;1.90;1.20;;;20.80;99.90;;;;;;5038306;28;20049;-64
2023/09/18 08:33:16;;;;;;;2.67;1.17;;;20.80;99.90;;;;;;5036521;28;20026;-64
2023/09/18 08:35:42;;;;;;;3.50;1.10;;;20.90;99.90;;;;;;5039066;28;20060;-64
2023/09/18 08:38:08;;;;;;;3.60;1.30;;;20.90;99.90;;;;;;5038397;28;20025;-63
2023/09/18 08:40:34;;;;;;;1.77;1.00;;;20.70;99.90;;;;;;5033169;28;20026;-63
2023/09/18 08:43:03;;;;;;;2.15;1.20;;;20.70;99.90;;;;;;5035104;28;20450;-63
2023/09/18 08:45:33;;;;;;;1.63;1.20;;;20.70;99.90;;;;;;5024313;28;20033;-63
2023/09/18 08:48:00;;;;;;;3.55;0.98;;;20.70;99.90;;;;;;5033776;28;20033;-63
2023/09/18 08:50:26;;;;;;;2.08;1.00;;;20.70;99.90;;;;;;5037024;28;20052;-63
2023/09/18 08:52:52;;;;;;;3.25;1.00;;;20.70;99.90;;;;;;5037679;28;20037;-63
2023/09/18 08:55:19;;;;;;;1.95;1.08;;;20.90;99.90;;;;;;5048655;28;20049;-63
2023/09/18 08:57:46;;;;;;;1.85;0.80;;;21.00;99.90;;;;;;5039420;28;20107;-63
2023/09/18 09:00:16;;;;;;;3.20;1.42;;;21.10;99.90;;;;;;5037939;28;20471;-63
2023/09/18 09:02:43;;;;;;;2.75;1.10;;;21.00;99.90;;;;;;5031352;28;20036;-63
2023/09/18 09:05:08;;;;;;;3.45;1.13;;;21.00;99.90;;;;;;5028720;28;20049;-64
2023/09/18 09:07:34;;;;;;;2.25;1.10;;;21.10;99.90;;;;;;5022747;28;20022;-63
2023/09/18 09:10:00;;;;;;;2.17;1.08;;;21.00;99.90;;;;;;5026258;28;20026;-63
2023/09/18 09:12:48;;;;;;;2.58;0.90;;;21.00;99.90;;;;;;5024119;28;20026;-63
2023/09/18 09:15:14;;;;;;;2.13;1.00;;;21.00;99.90;;;;;;5025410;28;20648;-63
2023/09/18 09:17:41;;;;;;;1.48;1.00;;;21.00;99.90;;;;;;5031462;28;20059;-63
2023/09/18 09:20:14;;;;;;;2.55;1.00;;;21.00;99.90;;;;;;5028390;28;20037;-63
2023/09/18 09:22:41;;;;;;;2.78;1.20;;;20.90;99.90;;;;;;5033976;28;20036;-63
2023/09/18 09:25:31;;;;;;;1.60;1.10;;;21.00;99.90;;;;;;5027563;28;20015;-63
2023/09/18 09:27:57;;;;;;;3.03;1.15;;;21.00;99.90;;;;;;5022472;28;20090;-63
2023/09/18 09:30:25;;;;;;;1.90;1.08;;;21.00;99.90;;;;;;5025287;28;20022;-63
2023/09/18 09:32:52;;;;;;;2.95;1.00;;;21.00;99.90;;;;;;5027790;28;20025;-63
2023/09/18 09:35:22;;;;;;;1.67;1.00;;;21.10;99.90;;;;;;5029967;28;20538;-63
2023/09/18 09:37:51;;;;;;;1.52;0.70;;;21.20;99.90;;;;;;5034198;28;20026;-63
2023/09/18 09:40:18;;;;;;;2.30;0.88;;;21.20;99.90;;;;;;5033347;28;20040;-63
2023/09/18 09:42:45;;;;;;;2.47;1.35;;;21.20;99.90;;;;;;5026894;28;20065;-63
2023/09/18 09:45:16;;;;;;;1.73;1.00;;;21.20;99.90;;;;;;5034440;28;20505;-64
2023/09/18 09:47:41;;;;;;;3.22;1.00;;;21.30;99.90;;;;;;5027955;28;20025;-64
2023/09/18 09:50:10;;;;;;;3.10;1.10;;;21.40;99.90;;;;;;5032970;28;20078;-64
2023/09/18 09:52:42;;;;;;;3.72;0.98;;;21.50;99.90;;;;;;5049552;28;20148;-64
2023/09/18 09:55:20;;;;;;;3.50;1.30;;;21.50;99.90;;;;;;5024432;28;20025;-64
2023/09/18 09:57:57;;;;;;;1.95;1.27;;;21.50;99.90;;;;;;5025075;28;20561;-64
2023/09/18 10:00:36;;;;;;;1.45;0.93;;;21.50;99.90;;;;;;5018509;28;20089;-64
2023/09/18 10:03:04;;;;;;;3.00;0.98;;;21.50;99.90;;;;;;5023947;28;20072;-64
2023/09/18 10:05:36;;;;;;;1.42;0.98;;;21.40;99.90;;;;;;5026769;28;20018;-63
2023/09/18 10:08:23;;;;;;;3.00;1.10;;;21.40;99.90;;;;;;5033983;28;20093;-63
2023/09/18 10:10:51;;;;;;;4.38;1.25;;;21.20;99.90;;;;;;5035197;28;20030;-63
2023/09/18 10:13:18;;;;;;;3.22;1.20;;;21.20;99.90;;;;;;5031966;28;20033;-63
2023/09/18 10:15:46;;;;;;;3.38;1.10;;;21.20;99.90;;;;;;5029916;28;20036;-63
2023/09/18 10:18:26;;;;;;;3.95;1.17;;;21.10;99.90;;;;;;5029931;28;20017;-63
2023/09/18 10:21:02;;;;;;;2.55;1.20;;;20.70;99.90;;;;;;5028918;28;20048;-67
2023/09/18 10:23:40;;;;;;;2.22;0.80;;;20.40;99.90;;;;;;5033645;28;20021;-65
2023/09/18 10:26:09;;;;;;;2.40;1.05;;;20.40;99.90;;;;;;5036124;28;20045;-68
2023/09/18 10:28:36;;;;;;;3.58;1.20;;;20.40;99.90;;;;;;5035157;28;20096;-65
2023/09/18 10:31:03;;;;;;;2.63;1.35;;;20.40;99.90;;;;;;5036252;28;20017;-65
2023/09/18 10:33:30;;;;;;;2.95;1.02;;;20.50;99.90;;;;;;5034902;28;20049;-65
2023/09/18 10:35:56;;;;;;;2.63;1.20;;;20.50;99.90;;;;;;5035856;28;20025;-65
2023/09/18 10:38:23;;;;;;;2.15;1.00;;;20.50;99.90;;;;;;5036438;28;20068;-64
2023/09/18 10:40:51;;;;;;;3.78;1.20;;;20.50;99.90;;;;;;5036589;28;20025;-66
2023/09/18 10:43:17;;;;;;;2.90;1.10;;;20.50;99.90;;;;;;5033761;28;20071;-66
2023/09/18 10:45:44;;;;;;;2.17;1.17;;;20.60;99.90;;;;;;5036086;28;20072;-66
2023/09/18 10:48:13;;;;;;;1.55;0.90;;;20.60;99.90;;;;;;5035697;28;20026;-66
2023/09/18 10:50:40;;;;;;;2.78;1.20;;;20.60;99.90;;;;;;5034461;28;20478;-65
2023/09/18 10:53:05;;;;;;;2.47;0.93;;;20.60;99.90;;;;;;5031494;28;20105;-66
2023/09/18 10:55:33;;;;;;;3.13;1.20;;;20.60;99.90;;;;;;5019538;28;20056;-64
2023/09/18 10:58:00;;;;;;;1.35;0.90;;;20.70;99.90;;;;;;5035841;28;20084;-66
2023/09/18 11:00:28;;;;;;;2.08;1.00;;;20.90;99.90;;;;;;5036277;28;20056;-66
2023/09/18 11:03:08;;;;;;;1.52;0.85;;;21.00;99.90;;;;;;5035060;28;20037;-66
2023/09/18 11:05:35;;;;;;;1.95;0.90;;;21.10;99.90;;;;;;5034895;28;20072;-66
2023/09/18 11:08:28;;;;;;;2.33;1.00;;;21.20;99.90;;;;;;5034838;28;20076;-66
2023/09/18 11:11:11;;;;;;;;;;;21.40;99.90;;;;;;5029070;28;20022;-66
2023/09/18 11:13:43;;;;;;;2.53;1.00;;;21.40;99.90;;;;;;5027220;28;19916;-66
2023/09/18 11:16:19;;;;;;;3.05;1.00;;;21.40;99.90;;;;;;5032766;28;20431;-65
2023/09/18 11:18:48;;;;;;;2.10;1.10;;;21.60;99.90;;;;;;5033413;28;20041;-67
2023/09/18 11:21:17;;;;;;;2.55;1.00;;;21.60;99.90;;;;;;5030100;28;20083;-64
2023/09/18 11:23:42;;;;;;;2.22;1.17;;;21.70;99.90;;;;;;5018483;28;20034;-65
2023/09/18 11:26:10;;;;;;;1.58;0.82;;;21.70;99.90;;;;;;5028905;28;20014;-66
2023/09/18 11:28:39;;;;;;;1.88;1.00;;;21.80;99.90;;;;;;5028575;28;20022;-65
2023/09/18 11:31:05;;;;;;;2.08;0.70;;;21.90;99.90;;;;;;5033956;28;20442;-65
2023/09/18 11:33:36;;;;;;;1.50;0.80;;;21.90;99.90;;;;;;5033277;28;20036;-64
2023/09/18 11:36:14;;;;;;;3.97;0.88;;;22.10;99.90;;;;;;5024334;28;20024;-64
2023/09/18 11:39:03;;;;;;;2.25;0.80;;;22.30;99.90;;;;;;5024655;28;20026;-64
2023/09/18 11:41:31;;;;;;;1.98;0.80;;;22.60;99.90;;;;;;5031506;28;20087;-64
2023/09/18 11:44:18;;;;;;;2.38;1.05;;;22.60;99.90;;;;;;5030873;28;20143;-64
2023/09/18 11:46:53;;;;;;;1.95;0.68;;;22.40;96.00;;;;;;5027966;28;20021;-65
2023/09/18 11:49:25;;;;;;;1.30;0.82;;;22.40;94.90;;;;;;5028840;28;20026;-64
2023/09/18 11:51:51;;;;;;;1.17;0.60;;;22.40;94.00;;;;;;5029476;28;20022;-63
2023/09/18 11:54:17;;;;;;;2.03;1.00;;;22.40;92.80;;;;;;5025296;28;20044;-63
2023/09/18 11:56:44;;;;;;;2.05;0.90;;;22.50;93.60;;;;;;5031900;28;20093;-63
2023/09/18 11:59:11;;;;;;;1.52;0.73;;;22.50;93.90;;;;;;5025171;28;20033;-70
2023/09/18 12:01:39;;;;;;;2.65;0.85;;;22.50;93.40;;;;;;5037783;28;20120;-66
2023/09/18 12:04:09;;;;;;;2.47;1.05;;;22.50;94.40;;;;;;5033466;28;20068;-67
2023/09/18 12:06:41;;;;;;;1.60;0.90;;;22.40;92.30;;;;;;5023523;28;20026;-68
2023/09/18 12:09:12;;;;;;;3.33;0.70;;;22.30;93.90;;;;;;5027672;28;20032;-67
2023/09/18 12:11:42;;;;;;;0.75;0.55;;;22.30;92.50;;;;;;5035928;28;20116;-66
2023/09/18 12:14:08;;;;;;;1.40;0.70;;;22.20;93.00;;;;;;5033558;28;20037;-67
2023/09/18 12:16:43;;;;;;;1.65;0.70;;;22.20;92.00;;;;;;5037542;28;20033;-67
2023/09/18 12:19:15;;;;;;;1.48;0.80;;;22.20;93.70;;;;;;5029206;28;20041;-66
2023/09/18 12:21:41;;;;;;;1.45;0.73;;;22.30;93.30;;;;;;5038651;28;20025;-66
2023/09/18 12:24:13;;;;;;;1.48;0.75;;;22.20;91.60;;;;;;5034629;28;20038;-67
2023/09/18 12:26:39;;;;;;;1.58;0.70;;;22.20;94.10;;;;;;5028356;28;20400;-68
2023/09/18 12:29:05;;;;;;;1.30;0.60;;;22.10;90.70;;;;;;5022981;28;20030;-67
2023/09/18 12:31:31;;;;;;;1.40;0.70;;;22.20;92.20;;;;;;5029781;28;20068;-67
2023/09/18 12:33:58;;;;;;;1.60;0.70;;;22.30;92.00;;;;;;5037266;28;20069;-65
2023/09/18 12:36:25;;;;;;;1.67;0.73;;;22.30;92.70;;;;;;5033610;28;20060;-67
2023/09/18 12:38:57;;;;;;;1.38;0.70;;;22.30;91.70;;;;;;5022838;28;20021;-67
2023/09/18 12:41:25;;;;;;;1.85;0.80;;;22.30;93.70;;;;;;5033579;28;20559;-66
2023/09/18 12:43:51;;;;;;;1.73;0.88;;;22.30;91.70;;;;;;5035281;28;20036;-67
2023/09/18 12:46:19;;;;;;;1.50;0.88;;;22.30;92.40;;;;;;5028221;28;20026;-67
2023/09/18 12:48:47;;;;;;;1.33;0.60;;;22.40;92.50;;;;;;5029910;28;20454;-67
2023/09/18 12:51:14;;;;;;;1.20;0.80;;;22.40;91.00;;;;;;5038799;28;20040;-69